Time;durP1;ratioP1;P1;durP2;ratioP2;P2;SDS_P1;SDS_P2;PMS_P1;PMS_P2;Temp;Humidity;BMP_temperature;BMP_pressure;BME280_temperature;BME280_humidity;BME280_pressure;Samples;Min_cycle;Max_cycle;Signal;HPM_P1;HPM_P2
2023/08/05 00:01:12;;;;;;;7.63;3.75;;;17.10;99.90;;;;;;4969326;28;20027;-79
2023/08/05 00:03:37;;;;;;;7.40;3.50;;;17.10;99.90;;;;;;4954640;28;20035;-79
2023/08/05 00:06:03;;;;;;;7.57;3.90;;;17.10;99.90;;;;;;4956960;29;20050;-79
2023/08/05 00:08:29;;;;;;;7.40;3.55;;;17.00;99.90;;;;;;4957426;29;20066;-79
2023/08/05 00:10:54;;;;;;;9.10;3.47;;;17.00;99.90;;;;;;4957055;29;20484;-79
2023/08/05 00:13:20;;;;;;;6.28;3.38;;;17.00;99.90;;;;;;4958249;29;20115;-79
2023/08/05 00:15:45;;;;;;;6.97;3.28;;;17.00;99.90;;;;;;4973067;28;20034;-79
2023/08/05 00:18:11;;;;;;;5.55;3.53;;;17.00;99.90;;;;;;4957546;29;20499;-79
2023/08/05 00:20:37;;;;;;;4.80;3.22;;;17.00;99.90;;;;;;4972678;28;20027;-79
2023/08/05 00:23:03;;;;;;;8.77;3.40;;;17.00;99.90;;;;;;4973919;28;20042;-79
2023/08/05 00:25:28;;;;;;;5.75;3.28;;;17.00;99.90;;;;;;4973029;28;20031;-78
2023/08/05 00:27:54;;;;;;;5.25;3.40;;;17.00;99.90;;;;;;4973547;28;20035;-79
2023/08/05 00:30:20;;;;;;;4.30;3.15;;;17.00;99.90;;;;;;4973273;28;20031;-78
2023/08/05 00:32:45;;;;;;;6.30;3.33;;;17.00;99.90;;;;;;4957999;29;20074;-79
2023/08/05 00:35:11;;;;;;;4.85;2.88;;;17.00;99.90;;;;;;4973470;28;20081;-79
2023/08/05 00:37:36;;;;;;;7.03;3.13;;;16.90;99.90;;;;;;4972769;28;20028;-78
2023/08/05 00:40:04;;;;;;;6.72;3.13;;;16.90;99.90;;;;;;4958349;29;20106;-78
2023/08/05 00:42:30;;;;;;;12.32;4.75;;;16.90;99.90;;;;;;4972776;28;20079;-79
2023/08/05 00:44:56;;;;;;;6.55;3.80;;;16.90;99.90;;;;;;4973104;28;20055;-78
2023/08/05 00:47:21;;;;;;;7.18;3.60;;;16.90;99.90;;;;;;4973158;28;20082;-79
2023/08/05 00:49:51;;;;;;;11.82;3.45;;;16.90;99.90;;;;;;4972934;28;20066;-79
2023/08/05 00:52:18;;;;;;;7.13;3.20;;;16.90;99.90;;;;;;4957106;29;20024;-80
2023/08/05 00:54:44;;;;;;;6.03;3.10;;;16.90;99.90;;;;;;4972674;28;20055;-79
2023/08/05 00:57:12;;;;;;;5.93;3.63;;;16.80;99.90;;;;;;4957935;29;20027;-79
2023/08/05 00:59:37;;;;;;;5.68;3.25;;;16.80;99.90;;;;;;4957302;29;20109;-79
2023/08/05 01:02:03;;;;;;;6.25;2.97;;;16.80;99.90;;;;;;4958200;29;20457;-79
2023/08/05 01:04:29;;;;;;;6.47;3.15;;;16.80;99.90;;;;;;4957429;29;20031;-79
2023/08/05 01:06:57;;;;;;;5.97;3.10;;;16.70;99.90;;;;;;4957026;29;20023;-79
2023/08/05 01:09:23;;;;;;;7.88;3.55;;;16.70;99.90;;;;;;4973139;28;20535;-80
2023/08/05 01:11:48;;;;;;;5.07;2.90;;;16.70;99.90;;;;;;4957264;29;20039;-79
2023/08/05 01:14:14;;;;;;;5.00;3.05;;;16.70;99.90;;;;;;4957640;28;20028;-80
2023/08/05 01:16:39;;;;;;;6.63;3.13;;;16.70;99.90;;;;;;4957075;29;20082;-80
2023/08/05 01:19:11;;;;;;;3.67;2.70;;;16.60;99.90;;;;;;4957703;29;20146;-80
2023/08/05 01:21:44;;;;;;;;;;;16.60;99.90;;;;;;4957451;29;20055;-80
2023/08/05 01:24:14;;;;;;;4.22;2.58;;;16.60;99.90;;;;;;4957449;29;19961;-80
2023/08/05 01:26:40;;;;;;;5.28;2.88;;;16.60;99.90;;;;;;4957339;29;20027;-80
2023/08/05 01:29:07;;;;;;;5.90;3.38;;;16.60;99.90;;;;;;4957562;29;20031;-80
2023/08/05 01:31:34;;;;;;;7.40;3.42;;;16.50;99.90;;;;;;4957140;29;20031;-79
2023/08/05 01:34:00;;;;;;;6.78;3.20;;;16.50;99.90;;;;;;4956550;29;20042;-82
2023/08/05 01:36:26;;;;;;;6.95;3.42;;;16.50;99.90;;;;;;4957536;29;20029;-80
2023/08/05 01:38:51;;;;;;;6.70;2.85;;;16.50;99.90;;;;;;4957527;29;20173;-80
2023/08/05 01:41:17;;;;;;;5.53;3.00;;;16.50;99.90;;;;;;4956458;29;20023;-80
2023/08/05 01:43:43;;;;;;;5.82;3.10;;;16.50;99.90;;;;;;4971594;28;20070;-79
2023/08/05 01:46:09;;;;;;;6.30;3.20;;;16.50;99.90;;;;;;4957412;29;20042;-79
2023/08/05 01:48:34;;;;;;;8.52;3.47;;;16.40;99.90;;;;;;4971944;28;20105;-79
2023/08/05 01:51:00;;;;;;;6.10;3.25;;;16.50;99.90;;;;;;4972160;28;20135;-82
2023/08/05 01:53:25;;;;;;;7.20;3.28;;;16.50;99.90;;;;;;4957472;29;20031;-81
2023/08/05 01:55:51;;;;;;;6.47;3.00;;;16.50;99.90;;;;;;4970961;28;20629;-80
2023/08/05 01:58:16;;;;;;;4.55;2.85;;;16.50;99.90;;;;;;4956847;29;20075;-82
2023/08/05 02:00:52;;;;;;;5.60;3.20;;;16.50;99.90;;;;;;4971648;28;20121;-82
2023/08/05 02:03:18;;;;;;;5.20;3.13;;;16.40;99.90;;;;;;4972432;28;20500;-81
2023/08/05 02:05:44;;;;;;;7.38;3.53;;;16.40;99.90;;;;;;4971859;28;20078;-80
2023/08/05 02:08:09;;;;;;;6.18;3.92;;;16.40;99.90;;;;;;4972463;28;20031;-80
2023/08/05 02:10:36;;;;;;;10.18;3.10;;;16.40;99.90;;;;;;4955311;29;20042;-80
2023/08/05 02:13:03;;;;;;;7.13;3.38;;;16.40;99.90;;;;;;4955518;29;20468;-79
2023/08/05 02:15:28;;;;;;;5.80;2.97;;;16.40;99.90;;;;;;4971682;28;20027;-79
2023/08/05 02:17:54;;;;;;;7.60;3.13;;;16.30;99.90;;;;;;4956317;29;20027;-79
2023/08/05 02:20:20;;;;;;;5.32;3.22;;;16.30;99.90;;;;;;4956699;29;20095;-78
2023/08/05 02:22:45;;;;;;;5.13;3.53;;;16.30;99.90;;;;;;4954910;29;20034;-79
2023/08/05 02:25:11;;;;;;;6.80;3.40;;;16.30;99.90;;;;;;4956631;29;20474;-79
2023/08/05 02:27:36;;;;;;;7.70;3.42;;;16.30;99.90;;;;;;4970117;28;20469;-79
2023/08/05 02:30:02;;;;;;;7.15;3.90;;;16.30;99.90;;;;;;4970875;28;20058;-79
2023/08/05 02:32:28;;;;;;;7.55;3.67;;;16.30;99.90;;;;;;4955228;29;20039;-79
2023/08/05 02:34:53;;;;;;;10.02;3.60;;;16.30;99.90;;;;;;4970409;28;20029;-79
2023/08/05 02:37:19;;;;;;;6.82;4.50;;;16.30;99.90;;;;;;4955286;29;20027;-79
2023/08/05 02:39:45;;;;;;;7.25;3.47;;;16.30;99.90;;;;;;4954541;29;20479;-79
2023/08/05 02:42:10;;;;;;;6.22;3.83;;;16.30;99.90;;;;;;4956416;29;20110;-79
2023/08/05 02:44:36;;;;;;;8.85;3.90;;;16.20;99.90;;;;;;4969076;28;20055;-79
2023/08/05 02:47:01;;;;;;;7.75;3.38;;;16.20;99.90;;;;;;4958696;28;20069;-80
2023/08/05 02:49:27;;;;;;;8.13;3.88;;;16.10;99.90;;;;;;4958319;28;20041;-80
2023/08/05 02:51:53;;;;;;;8.70;2.90;;;16.10;99.90;;;;;;4957897;28;20027;-80
2023/08/05 02:54:19;;;;;;;6.32;3.38;;;16.10;99.90;;;;;;4958164;28;20057;-80
2023/08/05 02:56:45;;;;;;;5.57;3.38;;;16.10;99.90;;;;;;4974704;28;20066;-79
2023/08/05 02:59:11;;;;;;;7.22;3.45;;;16.00;99.90;;;;;;4958090;28;20049;-79
2023/08/05 03:01:36;;;;;;;6.82;3.20;;;16.00;99.90;;;;;;4957570;28;20037;-80
2023/08/05 03:04:02;;;;;;;6.90;3.33;;;16.00;99.90;;;;;;4974996;28;20106;-79
2023/08/05 03:06:28;;;;;;;8.60;4.03;;;16.00;99.90;;;;;;4957598;28;20033;-80
2023/08/05 03:08:54;;;;;;;7.28;4.00;;;15.90;99.90;;;;;;4956858;28;20023;-79
2023/08/05 03:11:19;;;;;;;8.35;3.58;;;15.90;99.90;;;;;;4958143;28;20050;-79
2023/08/05 03:13:45;;;;;;;8.50;3.97;;;15.90;99.90;;;;;;4974167;28;20038;-80
2023/08/05 03:16:13;;;;;;;10.07;3.63;;;15.80;99.90;;;;;;4975060;28;20058;-80
2023/08/05 03:18:38;;;;;;;7.00;3.45;;;15.80;99.90;;;;;;4957392;28;20038;-79
2023/08/05 03:21:04;;;;;;;6.82;3.90;;;15.80;99.90;;;;;;4957830;28;20027;-79
2023/08/05 03:23:30;;;;;;;9.73;3.92;;;15.80;99.90;;;;;;4974715;28;20027;-80
2023/08/05 03:25:55;;;;;;;9.10;3.78;;;15.80;99.90;;;;;;4957622;28;20092;-79
2023/08/05 03:28:21;;;;;;;5.35;3.53;;;15.80;99.90;;;;;;4957809;28;20027;-79
2023/08/05 03:30:47;;;;;;;9.55;4.13;;;15.80;99.90;;;;;;4957622;28;20063;-81
2023/08/05 03:33:12;;;;;;;7.60;4.03;;;15.80;99.90;;;;;;4974932;28;20460;-80
2023/08/05 03:35:44;;;;;;;5.63;3.75;;;15.80;99.90;;;;;;4975120;28;20037;-80
2023/08/05 03:38:10;;;;;;;8.02;3.70;;;15.80;99.90;;;;;;4958800;28;20026;-82
2023/08/05 03:40:36;;;;;;;7.43;4.03;;;15.70;99.90;;;;;;4978710;28;20464;-81
2023/08/05 03:43:03;;;;;;;7.38;3.80;;;15.70;99.90;;;;;;4960967;28;20027;-80
2023/08/05 03:45:29;;;;;;;6.55;3.58;;;15.70;99.90;;;;;;4961663;28;20069;-81
2023/08/05 03:47:57;;;;;;;6.97;3.90;;;15.70;99.90;;;;;;4961013;28;20376;-81
2023/08/05 03:50:28;;;;;;;7.95;4.18;;;15.70;99.90;;;;;;4961531;28;20039;-81
2023/08/05 03:52:54;;;;;;;6.75;3.63;;;15.70;99.90;;;;;;4960681;28;20030;-81
2023/08/05 03:55:19;;;;;;;9.25;3.58;;;15.70;99.90;;;;;;4960857;28;20033;-81
2023/08/05 03:57:46;;;;;;;6.93;3.90;;;15.60;99.90;;;;;;4960232;28;20042;-80
2023/08/05 04:00:12;;;;;;;5.60;3.78;;;15.60;99.90;;;;;;4960731;28;20085;-80
2023/08/05 04:02:38;;;;;;;5.93;3.58;;;15.60;99.90;;;;;;4960861;28;20026;-81
2023/08/05 04:05:04;;;;;;;8.32;3.38;;;15.50;99.90;;;;;;4960696;28;20488;-79
2023/08/05 04:07:31;;;;;;;6.97;3.20;;;15.50;99.90;;;;;;4960929;28;20027;-80
2023/08/05 04:09:56;;;;;;;13.88;3.47;;;15.50;99.90;;;;;;4977162;28;20113;-80
2023/08/05 04:12:22;;;;;;;6.97;3.60;;;15.50;99.90;;;;;;4960710;28;20067;-80
2023/08/05 04:14:50;;;;;;;6.30;3.58;;;15.50;99.90;;;;;;4960398;28;20039;-80
2023/08/05 04:17:17;;;;;;;8.68;3.28;;;15.50;99.90;;;;;;4960656;28;20034;-80
2023/08/05 04:19:43;;;;;;;5.93;3.60;;;15.50;99.90;;;;;;4960196;28;20034;-80
2023/08/05 04:22:08;;;;;;;7.97;3.47;;;15.60;99.90;;;;;;4960707;28;20058;-81
2023/08/05 04:24:35;;;;;;;6.70;3.83;;;15.60;99.90;;;;;;4977802;28;20035;-80
2023/08/05 04:27:01;;;;;;;10.45;4.05;;;15.50;99.90;;;;;;4960072;28;20117;-79
2023/08/05 04:29:27;;;;;;;11.18;4.05;;;15.50;99.90;;;;;;4959535;28;20046;-79
2023/08/05 04:31:53;;;;;;;6.00;3.42;;;15.50;99.90;;;;;;4984578;28;20026;-80
2023/08/05 04:34:19;;;;;;;5.82;3.17;;;15.50;99.90;;;;;;4995552;28;20027;-81
2023/08/05 04:36:48;;;;;;;6.18;3.35;;;15.50;99.90;;;;;;4978113;28;20026;-81
2023/08/05 04:39:14;;;;;;;10.63;3.60;;;15.60;99.90;;;;;;4995735;28;20034;-80
2023/08/05 04:41:40;;;;;;;8.60;4.07;;;15.60;99.90;;;;;;4995102;28;20097;-80
2023/08/05 04:44:05;;;;;;;7.55;3.55;;;15.60;99.90;;;;;;4984104;28;20057;-80
2023/08/05 04:46:31;;;;;;;7.05;4.07;;;15.60;99.90;;;;;;4960051;28;20029;-81
2023/08/05 04:48:56;;;;;;;8.83;3.60;;;15.70;99.90;;;;;;4980105;28;20058;-80
2023/08/05 04:51:22;;;;;;;8.73;4.30;;;15.70;99.90;;;;;;4979434;28;20030;-81
2023/08/05 04:53:47;;;;;;;7.13;4.18;;;15.70;99.90;;;;;;4988635;28;20555;-80
2023/08/05 04:56:13;;;;;;;8.98;4.50;;;15.60;99.90;;;;;;4986517;28;20160;-81
2023/08/05 04:58:39;;;;;;;8.52;4.07;;;15.60;99.90;;;;;;4981272;28;20038;-81
2023/08/05 05:01:04;;;;;;;7.03;4.30;;;15.70;99.90;;;;;;4976699;28;20044;-80
2023/08/05 05:03:30;;;;;;;7.85;4.10;;;15.70;99.90;;;;;;4959889;28;20385;-81
2023/08/05 05:05:56;;;;;;;9.95;4.93;;;15.70;99.90;;;;;;4976366;28;20030;-81
2023/08/05 05:08:23;;;;;;;7.63;4.40;;;15.70;99.90;;;;;;4986887;28;20027;-80
2023/08/05 05:10:48;;;;;;;13.10;4.50;;;15.70;99.90;;;;;;4995473;28;20038;-81
2023/08/05 05:13:14;;;;;;;9.32;4.43;;;15.70;99.90;;;;;;4996037;28;20032;-80
2023/08/05 05:15:40;;;;;;;9.30;4.78;;;15.70;99.90;;;;;;4990040;28;20019;-81
2023/08/05 05:18:05;;;;;;;9.35;5.75;;;15.70;99.90;;;;;;4958996;28;20138;-80
2023/08/05 05:20:31;;;;;;;8.38;5.20;;;15.70;99.90;;;;;;4958790;28;20155;-80
2023/08/05 05:22:56;;;;;;;12.05;5.90;;;15.70;99.90;;;;;;4959535;28;20038;-81
2023/08/05 05:25:23;;;;;;;14.77;6.20;;;15.70;99.90;;;;;;4989555;28;20026;-80
2023/08/05 05:27:48;;;;;;;11.82;6.18;;;15.80;99.90;;;;;;4978084;28;20038;-83
2023/08/05 05:30:14;;;;;;;19.23;6.85;;;15.80;99.90;;;;;;4976315;28;20497;-79
2023/08/05 05:32:39;;;;;;;10.45;6.18;;;15.80;99.90;;;;;;4990815;28;20076;-79
2023/08/05 05:35:05;;;;;;;10.15;6.25;;;15.70;99.90;;;;;;4995673;28;20365;-80
2023/08/05 05:37:31;;;;;;;12.13;6.07;;;15.70;99.90;;;;;;4995146;28;20072;-80
2023/08/05 05:39:56;;;;;;;10.85;6.45;;;15.80;99.90;;;;;;4991815;28;20037;-80
2023/08/05 05:42:22;;;;;;;12.45;6.60;;;15.80;99.90;;;;;;4995693;28;20033;-80
2023/08/05 05:44:52;;;;;;;11.18;5.95;;;15.70;99.90;;;;;;4990773;28;20047;-80
2023/08/05 05:47:21;;;;;;;17.00;6.85;;;15.80;99.90;;;;;;4959001;28;20027;-81
2023/08/05 05:49:47;;;;;;;12.43;6.50;;;15.80;99.90;;;;;;4961814;28;20052;-80
2023/08/05 05:52:16;;;;;;;13.48;5.97;;;15.90;99.90;;;;;;4976036;28;20475;-80
2023/08/05 05:54:42;;;;;;;10.70;5.60;;;15.80;99.90;;;;;;4978589;28;20042;-79
2023/08/05 05:57:09;;;;;;;10.48;5.25;;;15.80;99.90;;;;;;4992741;28;20116;-81
2023/08/05 05:59:34;;;;;;;8.48;5.38;;;15.80;99.90;;;;;;4964395;28;20030;-80
2023/08/05 06:02:00;;;;;;;7.82;4.65;;;15.80;99.90;;;;;;4984752;28;20030;-81
2023/08/05 06:04:28;;;;;;;8.13;4.80;;;15.80;99.90;;;;;;4970841;28;20037;-83
2023/08/05 06:06:54;;;;;;;8.27;4.57;;;15.80;99.90;;;;;;4978271;28;20384;-83
2023/08/05 06:09:20;;;;;;;8.57;4.47;;;15.90;99.90;;;;;;4993960;28;20026;-81
2023/08/05 06:11:46;;;;;;;8.38;4.15;;;15.90;99.90;;;;;;4983584;28;20026;-80
2023/08/05 06:14:11;;;;;;;5.90;3.40;;;16.00;99.90;;;;;;4993908;28;20065;-81
2023/08/05 06:16:37;;;;;;;6.13;3.47;;;16.00;99.90;;;;;;4991372;28;20027;-81
2023/08/05 06:19:03;;;;;;;6.05;3.70;;;16.00;99.90;;;;;;4994330;28;20093;-81
2023/08/05 06:21:28;;;;;;;6.10;3.47;;;16.00;99.90;;;;;;4983309;28;20057;-81
2023/08/05 06:23:54;;;;;;;8.55;3.65;;;16.10;99.90;;;;;;4978933;28;20026;-80
2023/08/05 06:26:20;;;;;;;6.22;3.65;;;16.10;99.90;;;;;;4988160;28;20034;-82
2023/08/05 06:28:45;;;;;;;7.68;3.47;;;16.10;99.90;;;;;;4994399;28;20061;-80
2023/08/05 06:31:11;;;;;;;6.97;3.65;;;16.10;99.90;;;;;;4977142;28;20467;-81
2023/08/05 06:33:36;;;;;;;7.13;3.38;;;16.10;99.90;;;;;;4986898;28;20038;-79
2023/08/05 06:36:02;;;;;;;5.18;3.13;;;16.10;99.90;;;;;;4989902;28;20376;-81
2023/08/05 06:38:28;;;;;;;6.00;3.38;;;16.20;99.90;;;;;;4958394;28;20031;-79
2023/08/05 06:40:53;;;;;;;8.20;3.75;;;16.20;99.90;;;;;;4974987;28;20093;-79
2023/08/05 06:43:19;;;;;;;5.80;3.70;;;16.20;99.90;;;;;;4988035;28;20054;-80
2023/08/05 06:45:47;;;;;;;6.68;3.50;;;16.30;99.90;;;;;;4976302;28;20027;-80
2023/08/05 06:48:12;;;;;;;7.05;3.45;;;16.30;99.90;;;;;;4958051;28;20146;-81
2023/08/05 06:50:39;;;;;;;5.35;3.08;;;16.40;99.90;;;;;;4957488;28;20063;-80
2023/08/05 06:53:04;;;;;;;5.03;3.30;;;16.40;99.90;;;;;;4974477;28;20034;-79
2023/08/05 06:55:30;;;;;;;6.05;3.38;;;16.50;99.90;;;;;;4972898;28;20044;-80
2023/08/05 06:57:55;;;;;;;6.13;2.60;;;16.50;99.90;;;;;;4963392;28;20026;-82
2023/08/05 07:00:21;;;;;;;5.97;3.30;;;16.50;99.90;;;;;;4993712;28;20030;-80
2023/08/05 07:02:47;;;;;;;4.32;2.78;;;16.60;99.90;;;;;;4984283;28;20077;-79
2023/08/05 07:05:12;;;;;;;5.68;3.47;;;16.60;99.90;;;;;;4976100;28;20023;-81
2023/08/05 07:07:38;;;;;;;7.55;3.20;;;16.60;99.90;;;;;;4960971;28;20042;-81
2023/08/05 07:10:07;;;;;;;5.65;2.75;;;16.70;99.90;;;;;;4960156;28;20037;-81
2023/08/05 07:12:36;;;;;;;5.43;2.75;;;16.70;99.90;;;;;;4986350;28;20109;-81
2023/08/05 07:15:03;;;;;;;4.47;2.78;;;16.70;99.90;;;;;;4974203;28;20019;-80
2023/08/05 07:17:29;;;;;;;7.78;3.00;;;16.70;99.90;;;;;;4974502;28;20031;-81
2023/08/05 07:19:54;;;;;;;6.40;3.00;;;16.80;99.90;;;;;;4957362;28;20042;-81
2023/08/05 07:22:20;;;;;;;3.47;2.38;;;16.90;99.90;;;;;;4963608;28;20025;-82
2023/08/05 07:24:46;;;;;;;13.73;3.58;;;16.90;99.90;;;;;;4973839;28;20098;-81
2023/08/05 07:27:12;;;;;;;4.70;2.72;;;16.90;99.90;;;;;;4975329;28;20069;-82
2023/08/05 07:29:41;;;;;;;7.38;3.00;;;16.90;99.90;;;;;;4990224;28;20034;-81
2023/08/05 07:32:07;;;;;;;5.18;2.90;;;17.00;99.90;;;;;;4960224;28;20146;-82
2023/08/05 07:34:33;;;;;;;4.07;2.55;;;17.10;99.90;;;;;;4980975;28;20454;-81
2023/08/05 07:36:59;;;;;;;3.00;2.50;;;17.30;99.90;;;;;;4976736;28;20041;-82
2023/08/05 07:39:28;;;;;;;5.63;2.90;;;17.30;99.90;;;;;;4994580;28;20026;-82
2023/08/05 07:41:53;;;;;;;5.20;2.55;;;17.30;99.90;;;;;;4975273;28;20031;-81
2023/08/05 07:44:19;;;;;;;4.63;2.80;;;17.30;99.90;;;;;;4962493;28;20048;-82
2023/08/05 07:46:47;;;;;;;3.80;2.55;;;17.30;99.90;;;;;;4975944;28;20109;-82
2023/08/05 07:49:13;;;;;;;5.35;2.45;;;17.50;99.90;;;;;;4976307;28;20122;-82
2023/08/05 07:51:39;;;;;;;6.50;2.50;;;17.60;99.90;;;;;;4994059;28;20113;-82
2023/08/05 07:54:05;;;;;;;4.68;2.53;;;17.80;99.90;;;;;;4993180;28;20096;-83
2023/08/05 07:56:33;;;;;;;9.77;2.55;;;17.90;99.90;;;;;;4976559;28;20026;-82
2023/08/05 07:58:59;;;;;;;5.30;2.20;;;18.00;99.90;;;;;;4993151;28;20089;-82
2023/08/05 08:01:24;;;;;;;5.85;2.33;;;18.10;99.90;;;;;;4994289;28;20030;-80
2023/08/05 08:03:53;;;;;;;6.13;2.25;;;18.10;99.90;;;;;;4992927;28;20023;-79
2023/08/05 08:06:20;;;;;;;4.05;2.10;;;18.10;99.90;;;;;;4987368;28;20034;-80
2023/08/05 08:08:47;;;;;;;5.18;2.40;;;18.20;99.90;;;;;;4957525;28;20030;-81
2023/08/05 08:11:13;;;;;;;6.18;2.35;;;18.20;99.90;;;;;;4987149;28;20042;-78
2023/08/05 08:13:39;;;;;;;5.22;2.95;;;18.20;99.90;;;;;;4976526;28;20483;-78
2023/08/05 08:16:05;;;;;;;3.75;2.53;;;18.30;99.90;;;;;;4989999;28;20061;-78
2023/08/05 08:18:31;;;;;;;5.75;2.50;;;18.20;99.90;;;;;;4968546;28;20456;-80
2023/08/05 08:20:57;;;;;;;7.43;2.70;;;18.10;99.90;;;;;;4956867;28;20042;-80
2023/08/05 08:23:23;;;;;;;4.22;2.42;;;18.00;99.90;;;;;;4988046;28;20084;-80
2023/08/05 08:25:49;;;;;;;4.38;2.17;;;18.00;99.90;;;;;;4995256;28;20121;-79
2023/08/05 08:28:14;;;;;;;5.20;2.22;;;18.00;99.90;;;;;;4979043;28;20039;-80
2023/08/05 08:30:54;;;;;;;4.53;2.40;;;17.90;99.90;;;;;;4994826;28;20034;-81
2023/08/05 08:33:23;;;;;;;6.00;2.50;;;17.90;99.90;;;;;;4990281;28;20492;-81
2023/08/05 08:35:49;;;;;;;7.80;2.88;;;18.00;99.90;;;;;;4973895;28;20557;-79
2023/08/05 08:38:18;;;;;;;4.22;2.47;;;18.00;99.90;;;;;;4989431;28;20027;-80
2023/08/05 08:40:48;;;;;;;4.75;2.65;;;17.90;99.90;;;;;;4967211;28;20030;-80
2023/08/05 08:43:18;;;;;;;5.18;2.30;;;18.00;99.90;;;;;;4988434;28;20033;-79
2023/08/05 08:45:46;;;;;;;5.38;2.03;;;18.00;99.90;;;;;;4978734;28;20031;-80
2023/08/05 08:48:13;;;;;;;3.97;1.88;;;18.00;99.90;;;;;;4978442;28;20026;-80
2023/08/05 08:50:40;;;;;;;3.08;1.90;;;18.10;99.90;;;;;;4996257;28;20521;-80
2023/08/05 08:53:08;;;;;;;4.63;1.92;;;18.20;99.90;;;;;;4994547;28;20030;-80
2023/08/05 08:55:35;;;;;;;4.45;2.08;;;18.20;99.90;;;;;;4996297;28;20034;-80
2023/08/05 08:58:01;;;;;;;2.83;2.20;;;18.30;99.90;;;;;;4976873;28;20027;-80
2023/08/05 09:00:27;;;;;;;3.50;1.77;;;18.40;99.90;;;;;;4968606;28;20024;-80
2023/08/05 09:02:53;;;;;;;3.65;2.28;;;18.40;99.90;;;;;;4976293;28;20023;-80
2023/08/05 09:05:19;;;;;;;4.75;2.47;;;18.40;99.90;;;;;;4975950;28;20510;-80
2023/08/05 09:07:45;;;;;;;3.65;2.17;;;18.40;99.90;;;;;;4993041;28;20023;-79
2023/08/05 09:10:11;;;;;;;3.20;2.33;;;18.40;99.90;;;;;;4995237;28;20046;-80
2023/08/05 09:12:38;;;;;;;5.93;2.10;;;18.40;99.90;;;;;;4996040;28;20030;-79
2023/08/05 09:15:04;;;;;;;4.97;2.10;;;18.50;99.90;;;;;;4995815;28;20109;-79
2023/08/05 09:17:38;;;;;;;5.40;2.50;;;18.50;99.90;;;;;;4981122;28;20673;-80
2023/08/05 09:20:16;;;;;;;3.22;2.20;;;18.40;99.90;;;;;;4970377;28;20391;-80
2023/08/05 09:22:54;;;;;;;3.35;2.42;;;18.50;99.90;;;;;;4989867;28;20534;-81
2023/08/05 09:25:20;;;;;;;3.22;2.30;;;18.60;99.90;;;;;;4978233;28;20069;-81
2023/08/05 09:27:47;;;;;;;6.88;2.33;;;18.50;99.90;;;;;;4995679;28;20038;-80
2023/08/05 09:30:21;;;;;;;3.50;2.30;;;18.60;99.90;;;;;;4994528;28;20542;-80
2023/08/05 09:32:47;;;;;;;5.03;1.75;;;18.60;99.90;;;;;;4972834;28;20098;-81
2023/08/05 09:35:13;;;;;;;4.97;2.10;;;18.60;99.90;;;;;;4995393;28;20037;-80
2023/08/05 09:37:40;;;;;;;6.55;2.13;;;18.70;99.90;;;;;;4977252;28;20406;-80
2023/08/05 09:40:16;;;;;;;2.70;1.50;;;18.70;99.90;;;;;;4994328;28;20382;-80
2023/08/05 09:42:47;;;;;;;3.45;1.70;;;18.70;99.90;;;;;;4973447;28;20498;-80
2023/08/05 09:45:14;;;;;;;3.17;1.77;;;18.70;99.90;;;;;;4968897;28;20501;-80
2023/08/05 09:47:42;;;;;;;4.15;2.13;;;18.80;99.90;;;;;;4991060;28;20061;-80
2023/08/05 09:50:11;;;;;;;4.90;2.65;;;18.90;99.90;;;;;;4989217;28;20170;-80
2023/08/05 09:52:39;;;;;;;2.88;2.00;;;19.00;99.90;;;;;;4963263;28;20082;-80
2023/08/05 09:55:14;;;;;;;3.40;2.10;;;19.10;99.90;;;;;;4957913;28;20030;-81
2023/08/05 09:57:41;;;;;;;4.43;2.50;;;19.10;99.90;;;;;;4975231;28;20065;-82
2023/08/05 10:00:10;;;;;;;3.72;1.90;;;19.20;99.90;;;;;;4975955;28;20022;-81
2023/08/05 10:02:41;;;;;;;4.45;1.80;;;19.20;99.90;;;;;;4973063;28;20030;-82
2023/08/05 10:05:09;;;;;;;2.20;1.70;;;19.20;99.90;;;;;;4991092;28;20479;-83
2023/08/05 10:07:42;;;;;;;4.63;1.70;;;19.20;99.90;;;;;;4965980;28;20101;-81
2023/08/05 10:10:08;;;;;;;8.90;2.10;;;19.10;99.90;;;;;;4977888;28;20034;-81
2023/08/05 10:12:41;;;;;;;6.07;2.20;;;19.20;99.90;;;;;;4993922;28;20029;-81
2023/08/05 10:15:10;;;;;;;3.72;1.92;;;19.20;99.90;;;;;;4994314;28;20106;-81
2023/08/05 10:17:39;;;;;;;3.85;2.22;;;19.30;99.90;;;;;;4988449;28;20029;-81
2023/08/05 10:20:06;;;;;;;7.80;1.83;;;19.30;99.90;;;;;;4980749;28;20037;-81
2023/08/05 10:22:32;;;;;;;3.00;1.73;;;19.40;99.90;;;;;;4993479;28;20033;-81
2023/08/05 10:24:59;;;;;;;3.08;1.70;;;19.40;99.90;;;;;;4991937;28;20113;-80
2023/08/05 10:27:42;;;;;;;2.55;1.60;;;19.40;99.90;;;;;;4992868;28;20506;-81
2023/08/05 10:30:16;;;;;;;3.53;1.80;;;19.40;99.90;;;;;;4984623;28;20099;-83
2023/08/05 10:32:52;;;;;;;1.65;1.35;;;19.40;99.90;;;;;;4974219;28;20093;-81
2023/08/05 10:35:38;;;;;;;3.88;1.40;;;19.50;99.90;;;;;;4974217;28;20384;-81
2023/08/05 10:38:15;;;;;;;3.08;1.98;;;19.50;99.90;;;;;;4979873;28;20030;-81
2023/08/05 10:40:47;;;;;;;3.22;1.23;;;19.60;99.90;;;;;;4989756;28;20023;-79
2023/08/05 10:43:32;;;;;;;1.75;1.60;;;19.50;99.90;;;;;;4980511;28;20030;-80
2023/08/05 10:45:58;;;;;;;3.35;1.90;;;19.50;99.90;;;;;;4979030;28;20093;-80
2023/08/05 10:48:29;;;;;;;1.90;1.58;;;19.50;99.90;;;;;;4983365;28;20534;-80
2023/08/05 10:50:56;;;;;;;4.30;1.40;;;19.50;99.90;;;;;;4982263;28;20066;-80
2023/08/05 10:53:22;;;;;;;3.10;1.73;;;19.60;99.90;;;;;;4988668;28;20463;-80
2023/08/05 10:55:55;;;;;;;2.15;1.42;;;19.70;99.90;;;;;;4985702;28;20038;-80
2023/08/05 10:58:23;;;;;;;4.28;1.63;;;19.70;99.90;;;;;;4987337;28;20042;-80
2023/08/05 11:01:02;;;;;;;2.58;1.45;;;19.80;99.90;;;;;;4989055;28;20034;-81
2023/08/05 11:03:46;;;;;;;1.85;1.70;;;19.90;99.90;;;;;;4987892;28;20106;-80
2023/08/05 11:06:14;;;;;;;4.03;1.67;;;19.90;99.90;;;;;;4983874;28;20599;-80
2023/08/05 11:08:42;;;;;;;2.10;1.50;;;19.90;99.90;;;;;;4961369;28;20022;-81
2023/08/05 11:11:11;;;;;;;1.92;1.50;;;19.90;99.90;;;;;;4964384;28;20066;-81
2023/08/05 11:13:42;;;;;;;2.53;1.60;;;19.90;99.90;;;;;;4982602;28;20030;-79
2023/08/05 11:16:12;;;;;;;2.38;1.60;;;19.90;99.90;;;;;;4981952;28;20139;-79
2023/08/05 11:18:39;;;;;;;1.98;1.48;;;20.00;99.90;;;;;;4980199;28;20038;-79
2023/08/05 11:21:10;;;;;;;3.38;2.10;;;20.00;99.90;;;;;;4992453;28;20510;-80
2023/08/05 11:23:43;;;;;;;2.45;2.00;;;20.10;99.90;;;;;;4988793;28;20058;-79
2023/08/05 11:26:09;;;;;;;4.05;1.60;;;20.10;99.90;;;;;;4987782;28;20211;-80
2023/08/05 11:28:41;;;;;;;5.80;2.58;;;20.20;99.90;;;;;;4981574;28;20037;-79
2023/08/05 11:31:07;;;;;;;4.90;1.70;;;20.30;99.90;;;;;;4979049;28;20050;-80
2023/08/05 11:33:32;;;;;;;2.30;1.60;;;20.40;99.90;;;;;;4978019;28;20030;-81
2023/08/05 11:35:58;;;;;;;3.55;1.50;;;20.50;99.90;;;;;;4979139;28;20019;-80
2023/08/05 11:38:24;;;;;;;2.10;1.42;;;20.60;99.90;;;;;;4986681;28;20027;-79
2023/08/05 11:40:54;;;;;;;1.98;1.60;;;20.60;99.90;;;;;;4981984;28;20113;-81
2023/08/05 11:43:21;;;;;;;1.67;1.58;;;20.60;99.90;;;;;;4987925;28;20125;-79
2023/08/05 11:45:48;;;;;;;2.42;1.95;;;20.80;99.90;;;;;;4976721;28;20032;-80
2023/08/05 11:48:26;;;;;;;4.07;1.55;;;20.90;99.90;;;;;;4982278;28;20058;-80
2023/08/05 11:50:58;;;;;;;2.53;1.50;;;21.00;99.90;;;;;;4956765;28;20058;-81
2023/08/05 11:53:25;;;;;;;1.70;1.60;;;21.00;99.90;;;;;;4976099;28;20074;-80
2023/08/05 11:55:51;;;;;;;4.38;1.52;;;21.00;99.90;;;;;;4956789;28;20056;-81
2023/08/05 11:58:16;;;;;;;5.75;1.70;;;21.00;99.90;;;;;;4964527;28;20424;-81
2023/08/05 12:00:44;;;;;;;3.28;1.63;;;21.10;99.90;;;;;;4977455;28;20038;-81
2023/08/05 12:03:10;;;;;;;2.15;1.63;;;21.20;99.90;;;;;;4989755;28;20014;-80
2023/08/05 12:05:36;;;;;;;1.92;1.35;;;21.30;99.90;;;;;;4996538;28;20033;-80
2023/08/05 12:08:01;;;;;;;2.88;1.60;;;21.30;99.90;;;;;;4976108;28;20038;-80
2023/08/05 12:10:27;;;;;;;3.55;1.70;;;21.50;99.90;;;;;;4976956;28;20035;-80
2023/08/05 12:12:53;;;;;;;4.28;1.73;;;21.50;99.90;;;;;;4984871;28;20482;-81
2023/08/05 12:15:27;;;;;;;1.40;1.20;;;21.70;99.90;;;;;;4996192;28;20078;-80
2023/08/05 12:18:03;;;;;;;4.55;1.60;;;21.70;99.90;;;;;;4994202;28;20487;-81
2023/08/05 12:20:34;;;;;;;1.73;1.30;;;21.80;99.90;;;;;;4995527;28;20101;-80
2023/08/05 12:23:00;;;;;;;1.97;1.13;;;21.80;99.90;;;;;;4995338;28;20104;-80
2023/08/05 12:25:27;;;;;;;1.60;1.30;;;21.90;99.90;;;;;;4995788;28;20472;-80
2023/08/05 12:27:53;;;;;;;1.30;1.20;;;22.00;99.90;;;;;;4978652;28;20118;-81
2023/08/05 12:30:19;;;;;;;1.88;1.10;;;22.10;99.90;;;;;;4979271;28;20177;-81
2023/08/05 12:32:45;;;;;;;2.67;1.42;;;22.10;99.90;;;;;;4987334;28;20030;-80
2023/08/05 12:35:11;;;;;;;2.20;1.30;;;22.20;99.90;;;;;;4972202;28;20026;-80
2023/08/05 12:37:39;;;;;;;3.72;1.25;;;22.40;99.90;;;;;;4978824;28;20546;-80
2023/08/05 12:40:07;;;;;;;2.65;1.98;;;22.50;99.90;;;;;;4974114;28;20039;-81
2023/08/05 12:42:33;;;;;;;2.33;1.25;;;22.60;99.90;;;;;;4993810;28;20023;-80
2023/08/05 12:45:02;;;;;;;2.67;1.13;;;22.70;99.90;;;;;;4958611;28;20055;-80